createdAt,value
2023-02-27T00:01:22.159Z,0.90
2023-02-27T00:06:23.721Z,0.60
2023-02-27T00:11:25.419Z,0.50
2023-02-27T00:16:27.284Z,0.95
2023-02-27T00:21:29.138Z,0.85
2023-02-27T00:26:30.664Z,0.70
2023-02-27T00:31:33.043Z,0.60
2023-02-27T00:36:34.564Z,0.45
2023-02-27T00:41:36.080Z,0.77
2023-02-27T00:46:37.602Z,0.63
2023-02-27T00:51:39.798Z,0.52
2023-02-27T00:56:41.606Z,0.63
2023-02-27T01:01:44.552Z,0.60
2023-02-27T01:06:46.034Z,0.77
2023-02-27T01:11:47.580Z,0.73
2023-02-27T01:16:49.262Z,0.65
2023-02-27T01:21:51.046Z,0.65
2023-02-27T01:26:52.838Z,0.57
2023-02-27T01:31:54.525Z,0.77
2023-02-27T01:36:56.068Z,1.13
2023-02-27T01:41:57.550Z,0.77
2023-02-27T01:46:59.071Z,0.80
2023-02-27T01:52:05.750Z,1.10
2023-02-27T01:57:07.946Z,1.08
2023-02-27T02:02:14.227Z,0.85
2023-02-27T02:07:17.563Z,0.70
2023-02-27T02:12:20.168Z,0.60
2023-02-27T02:17:21.602Z,0.52
2023-02-27T02:22:41.794Z,0.80
2023-02-27T02:27:59.339Z,0.75
2023-02-27T02:33:06.679Z,0.63
2023-02-27T02:38:20.146Z,0.55
2023-02-27T02:43:36.676Z,0.50
2023-02-27T02:48:47.814Z,0.85
2023-02-27T02:53:57.175Z,0.55
2023-02-27T02:59:20.803Z,0.40
2023-02-27T03:04:28.458Z,0.70
2023-02-27T03:09:41.078Z,1.13
2023-02-27T03:14:52.075Z,0.57
2023-02-27T03:19:56.702Z,0.90
2023-02-27T03:25:00.500Z,0.47
2023-02-27T03:30:07.954Z,0.85
2023-02-27T03:35:09.932Z,0.88
2023-02-27T03:40:26.347Z,0.77
2023-02-27T03:45:39.622Z,0.90
2023-02-27T03:50:41.403Z,0.95
2023-02-27T03:55:44.905Z,0.52
2023-02-27T04:00:46.466Z,0.65
2023-02-27T04:05:48.049Z,0.80
2023-02-27T04:10:52.360Z,0.60
2023-02-27T04:15:53.866Z,0.70
2023-02-27T04:21:07.666Z,0.90
2023-02-27T04:26:22.101Z,0.82
2023-02-27T04:31:28.805Z,0.63
2023-02-27T04:36:33.249Z,0.63
2023-02-27T04:41:38.011Z,2.35
2023-02-27T04:46:40.979Z,3.95
2023-02-27T04:51:48.866Z,1.92
2023-02-27T04:56:55.866Z,2.72
2023-02-27T05:02:03.208Z,1.45
2023-02-27T05:07:06.613Z,1.23
2023-02-27T05:12:15.355Z,1.42
2023-02-27T05:17:22.285Z,0.98
2023-02-27T05:22:33.453Z,0.55
2023-02-27T05:27:44.572Z,0.93
2023-02-27T05:32:53.403Z,1.15
2023-02-27T05:38:05.607Z,1.73
2023-02-27T05:43:16.921Z,2.15
2023-02-27T05:48:20.954Z,1.33
2023-02-27T05:53:24.996Z,2.17
2023-02-27T05:58:38.403Z,2.88
2023-02-27T06:03:40.919Z,3.30
2023-02-27T06:08:42.617Z,2.63
2023-02-27T06:13:44.085Z,2.03
2023-02-27T06:18:45.514Z,2.17
2023-02-27T06:23:47.037Z,2.28
2023-02-27T06:28:48.498Z,1.13
2023-02-27T06:33:50.066Z,0.82
2023-02-27T06:38:51.526Z,0.55
2023-02-27T06:43:53.037Z,0.55
2023-02-27T06:48:54.488Z,0.80
2023-02-27T06:53:56.273Z,0.60
2023-02-27T06:58:59.518Z,0.35
2023-02-27T07:04:01.333Z,0.40
2023-02-27T07:09:06.378Z,0.57
2023-02-27T07:14:08.500Z,0.20
2023-02-27T07:19:10.409Z,0.47
2023-02-27T07:24:12.015Z,0.43
2023-02-27T07:29:14.867Z,0.40
2023-02-27T07:34:16.442Z,0.35
2023-02-27T07:39:17.889Z,0.30
2023-02-27T07:44:19.374Z,0.40
2023-02-27T07:49:20.845Z,0.43
2023-02-27T07:54:22.397Z,0.43
2023-02-27T07:59:23.929Z,0.60
2023-02-27T08:04:25.458Z,0.32
2023-02-27T08:09:28.840Z,0.20
2023-02-27T08:14:30.467Z,0.38
2023-02-27T08:19:32.035Z,0.20
2023-02-27T08:24:33.569Z,0.25
2023-02-27T08:29:35.191Z,0.30
2023-02-27T08:34:36.908Z,0.30
2023-02-27T08:39:38.389Z,0.30
2023-02-27T08:44:39.889Z,0.45
2023-02-27T08:49:41.348Z,0.32
2023-02-27T08:54:42.819Z,0.20
2023-02-27T08:59:44.422Z,0.30
2023-02-27T09:04:45.953Z,0.20
2023-02-27T09:09:49.735Z,0.20
2023-02-27T09:14:51.491Z,0.20
2023-02-27T09:19:53.100Z,0.20
2023-02-27T09:24:54.566Z,0.20
2023-02-27T09:29:56.481Z,0.20
2023-02-27T09:34:58.403Z,0.10
2023-02-27T09:39:59.894Z,0.20
2023-02-27T09:45:05.467Z,0.17
2023-02-27T09:50:07.573Z,0.40
2023-02-27T09:55:14.374Z,0.20
2023-02-27T10:00:34.975Z,0.20
2023-02-27T10:10:46.551Z,0.20
2023-02-27T10:21:00.181Z,0.15
2023-02-27T10:26:02.427Z,0.10
2023-02-27T10:31:11.932Z,0.30
2023-02-27T10:36:26.854Z,0.60
2023-02-27T10:41:35.338Z,0.10
2023-02-27T10:46:39.735Z,0.22
2023-02-27T10:51:41.290Z,0.20
2023-02-27T10:56:45.256Z,0.30
2023-02-27T11:01:48.226Z,0.20
2023-02-27T11:06:52.082Z,0.38
2023-02-27T11:11:54.151Z,0.50
2023-02-27T11:16:57.344Z,0.40
2023-02-27T11:22:14.517Z,0.43
2023-02-27T11:27:19.017Z,0.20
2023-02-27T11:32:20.578Z,0.17
2023-02-27T11:37:22.219Z,0.50
2023-02-27T11:42:30.657Z,0.13
2023-02-27T11:47:33.840Z,0.22
2023-02-27T11:53:01.021Z,0.20
2023-02-27T11:58:09.487Z,0.30
2023-02-27T12:03:20.698Z,0.20
2023-02-27T12:08:28.331Z,0.10
2023-02-27T12:13:35.518Z,0.43
2023-02-27T12:18:53.167Z,0.10
2023-02-27T12:23:57.742Z,0.20
2023-02-27T12:29:02.211Z,0.22
2023-02-27T12:34:19.019Z,0.10
2023-02-27T12:39:21.880Z,0.10
2023-02-27T12:44:41.984Z,0.15
2023-02-27T12:49:43.417Z,0.20
2023-02-27T12:54:46.584Z,0.20
2023-02-27T13:00:02.299Z,0.20
2023-02-27T13:05:09.699Z,0.10
2023-02-27T13:10:18.968Z,0.10
2023-02-27T13:15:23.462Z,0.30
2023-02-27T13:20:28.172Z,0.63
2023-02-27T13:25:30.627Z,0.60
2023-02-27T13:30:40.040Z,1.27
2023-02-27T13:35:41.556Z,1.60
2023-02-27T13:40:43.039Z,0.50
2023-02-27T13:45:48.180Z,0.35
2023-02-27T13:50:50.406Z,0.90
2023-02-27T13:55:53.930Z,1.00
2023-02-27T14:00:57.455Z,0.47
2023-02-27T14:06:01.564Z,0.20
2023-02-27T14:11:08.835Z,0.32
2023-02-27T14:16:11.447Z,0.10
2023-02-27T14:21:12.991Z,0.17
2023-02-27T14:26:16.458Z,0.20
2023-02-27T14:31:21.001Z,0.10
2023-02-27T14:36:29.970Z,0.10
2023-02-27T14:41:42.583Z,0.40
2023-02-27T14:46:44.067Z,0.28
2023-02-27T14:51:45.750Z,0.32
2023-02-27T14:57:08.094Z,0.40
2023-02-27T15:02:16.921Z,0.25
2023-02-27T15:07:24.810Z,0.28
2023-02-27T15:12:27.130Z,0.22
2023-02-27T15:17:37.643Z,0.20
2023-02-27T15:22:40.196Z,0.43
2023-02-27T15:27:42.022Z,0.20
2023-02-27T15:32:43.539Z,0.50
2023-02-27T15:37:52.927Z,0.22
2023-02-27T15:42:55.106Z,0.50
2023-02-27T15:47:56.669Z,0.50
2023-02-27T15:53:05.785Z,0.20
2023-02-27T15:58:16.937Z,0.40
2023-02-27T16:03:22.260Z,0.38
2023-02-27T16:08:23.802Z,0.32
2023-02-27T16:13:25.358Z,0.30
2023-02-27T16:18:29.025Z,0.20
2023-02-27T16:23:32.046Z,0.30
2023-02-27T16:28:35.987Z,0.30
2023-02-27T16:33:39.381Z,0.40
2023-02-27T16:38:42.304Z,0.38
2023-02-27T16:43:45.114Z,0.40
2023-02-27T16:48:51.188Z,0.40
2023-02-27T16:53:53.763Z,0.40
2023-02-27T16:58:55.610Z,0.40
2023-02-27T17:03:57.098Z,1.60
2023-02-27T17:08:58.683Z,1.23
2023-02-27T17:14:00.210Z,2.45
2023-02-27T17:19:01.715Z,0.65
2023-02-27T17:24:03.293Z,0.77
2023-02-27T17:29:05.388Z,0.30
2023-02-27T17:34:08.874Z,0.40
2023-02-27T17:39:11.817Z,0.30
2023-02-27T17:44:13.695Z,0.55
2023-02-27T17:49:15.259Z,0.70
2023-02-27T17:54:16.688Z,0.80
2023-02-27T17:59:18.333Z,0.68
2023-02-27T18:04:19.795Z,0.57
2023-02-27T18:09:21.305Z,0.50
2023-02-27T18:14:22.762Z,0.60
2023-02-27T18:19:25.260Z,0.47
2023-02-27T18:24:26.877Z,0.43
2023-02-27T18:29:28.346Z,0.70
2023-02-27T18:34:29.926Z,0.60
2023-02-27T18:39:31.368Z,0.77
2023-02-27T18:44:32.795Z,0.70
2023-02-27T18:49:34.284Z,0.85
2023-02-27T18:54:36.545Z,0.63
2023-02-27T18:59:40.124Z,0.50
2023-02-27T19:04:41.643Z,0.35
2023-02-27T19:09:43.253Z,0.60
2023-02-27T19:14:44.756Z,1.40
2023-02-27T19:19:46.307Z,0.95
2023-02-27T19:24:49.199Z,0.70
2023-02-27T19:29:51.145Z,0.80
2023-02-27T19:34:52.629Z,0.70
2023-02-27T19:39:54.143Z,0.75
2023-02-27T19:44:55.590Z,0.82
2023-02-27T19:49:57.028Z,0.88
2023-02-27T19:54:58.540Z,1.05
2023-02-27T20:00:00.456Z,0.80
2023-02-27T20:05:03.194Z,0.77
2023-02-27T20:10:05.799Z,0.57
2023-02-27T20:15:11.219Z,0.77
2023-02-27T20:20:13.106Z,1.40
2023-02-27T20:25:14.600Z,0.90
2023-02-27T20:30:16.102Z,1.00
2023-02-27T20:35:17.606Z,4.80
2023-02-27T20:40:19.141Z,1.50
2023-02-27T20:45:20.650Z,0.63
2023-02-27T20:50:22.153Z,0.80
2023-02-27T20:55:23.626Z,0.93
2023-02-27T21:00:27.033Z,0.90
2023-02-27T21:05:28.578Z,1.02
2023-02-27T21:10:30.021Z,0.88
2023-02-27T21:15:38.110Z,1.13
2023-02-27T21:20:41.030Z,0.93
2023-02-27T21:25:43.144Z,0.88
2023-02-27T21:30:44.601Z,0.75
2023-02-27T21:35:46.761Z,1.00
2023-02-27T21:40:48.392Z,0.77
2023-02-27T21:45:51.795Z,0.82
2023-02-27T21:50:57.825Z,0.88
2023-02-27T21:56:06.683Z,0.60
2023-02-27T22:01:15.419Z,0.63
2023-02-27T22:06:17.642Z,1.38
2023-02-27T22:11:19.081Z,0.60
2023-02-27T22:16:21.272Z,0.60
2023-02-27T22:21:24.311Z,1.45
2023-02-27T22:26:28.276Z,0.50
2023-02-27T22:31:31.712Z,0.38
2023-02-27T22:36:34.078Z,0.45
2023-02-27T22:41:36.876Z,0.50
2023-02-27T22:46:39.925Z,0.85
2023-02-27T22:51:41.673Z,0.40
2023-02-27T22:56:43.493Z,0.45
2023-02-27T23:01:45.477Z,0.40
2023-02-27T23:06:47.002Z,0.98
2023-02-27T23:11:48.502Z,0.93
2023-02-27T23:16:51.445Z,0.82
2023-02-27T23:21:52.914Z,1.10
2023-02-27T23:26:54.389Z,0.68
2023-02-27T23:31:55.935Z,0.75
2023-02-27T23:36:57.471Z,0.75
2023-02-27T23:41:58.960Z,0.68
2023-02-27T23:47:00.504Z,0.63
2023-02-27T23:52:01.986Z,0.80
2023-02-27T23:57:03.699Z,0.50
